sensor_id;sensor_type;location;lat;lon;timestamp;P1;durP1;ratioP1;P2;durP2;ratioP2
72891;SDS011;61032;50.782;6.818;2023-04-24T00:00:28;1.20;;;0.57;;
72891;SDS011;61032;50.782;6.818;2023-04-24T00:01:28;1.52;;;0.30;;
72891;SDS011;61032;50.782;6.818;2023-04-24T00:02:29;1.08;;;0.50;;
72891;SDS011;61032;50.782;6.818;2023-04-24T00:03:30;1.55;;;0.40;;
72891;SDS011;61032;50.782;6.818;2023-04-24T00:04:30;1.40;;;0.47;;
72891;SDS011;61032;50.782;6.818;2023-04-24T00:05:31;0.73;;;0.35;;
72891;SDS011;61032;50.782;6.818;2023-04-24T00:06:32;1.23;;;0.45;;
72891;SDS011;61032;50.782;6.818;2023-04-24T00:07:33;0.98;;;0.40;;
72891;SDS011;61032;50.782;6.818;2023-04-24T00:08:35;0.65;;;0.30;;
72891;SDS011;61032;50.782;6.818;2023-04-24T00:09:36;0.80;;;0.40;;
72891;SDS011;61032;50.782;6.818;2023-04-24T00:10:36;2.15;;;0.40;;
72891;SDS011;61032;50.782;6.818;2023-04-24T00:11:36;0.65;;;0.40;;
72891;SDS011;61032;50.782;6.818;2023-04-24T00:12:37;0.57;;;0.30;;
72891;SDS011;61032;50.782;6.818;2023-04-24T00:13:38;1.70;;;0.38;;
72891;SDS011;61032;50.782;6.818;2023-04-24T00:14:38;0.47;;;0.30;;
72891;SDS011;61032;50.782;6.818;2023-04-24T00:15:38;0.73;;;0.40;;
72891;SDS011;61032;50.782;6.818;2023-04-24T00:16:39;0.93;;;0.40;;
72891;SDS011;61032;50.782;6.818;2023-04-24T00:17:39;1.80;;;0.30;;
72891;SDS011;61032;50.782;6.818;2023-04-24T00:18:40;0.85;;;0.50;;
72891;SDS011;61032;50.782;6.818;2023-04-24T00:19:41;0.65;;;0.40;;
72891;SDS011;61032;50.782;6.818;2023-04-24T00:20:41;0.80;;;0.40;;
72891;SDS011;61032;50.782;6.818;2023-04-24T00:21:43;1.00;;;0.40;;
72891;SDS011;61032;50.782;6.818;2023-04-24T00:22:43;0.82;;;0.45;;
72891;SDS011;61032;50.782;6.818;2023-04-24T00:23:44;0.98;;;0.50;;
72891;SDS011;61032;50.782;6.818;2023-04-24T00:24:44;2.15;;;0.50;;
72891;SDS011;61032;50.782;6.818;2023-04-24T00:25:44;1.10;;;0.70;;
72891;SDS011;61032;50.782;6.818;2023-04-24T00:26:45;0.63;;;0.30;;
72891;SDS011;61032;50.782;6.818;2023-04-24T00:27:45;1.45;;;0.57;;
72891;SDS011;61032;50.782;6.818;2023-04-24T00:28:45;0.73;;;0.38;;
72891;SDS011;61032;50.782;6.818;2023-04-24T00:29:46;0.63;;;0.40;;
72891;SDS011;61032;50.782;6.818;2023-04-24T00:30:46;0.85;;;0.50;;
72891;SDS011;61032;50.782;6.818;2023-04-24T00:31:46;1.83;;;0.50;;
72891;SDS011;61032;50.782;6.818;2023-04-24T00:32:47;1.17;;;0.55;;
72891;SDS011;61032;50.782;6.818;2023-04-24T00:33:47;1.67;;;0.32;;
72891;SDS011;61032;50.782;6.818;2023-04-24T00:34:48;0.95;;;0.40;;
72891;SDS011;61032;50.782;6.818;2023-04-24T00:35:48;1.35;;;0.43;;
72891;SDS011;61032;50.782;6.818;2023-04-24T00:36:48;1.00;;;0.38;;
72891;SDS011;61032;50.782;6.818;2023-04-24T00:37:52;1.60;;;0.57;;
72891;SDS011;61032;50.782;6.818;2023-04-24T00:38:52;2.55;;;0.43;;
72891;SDS011;61032;50.782;6.818;2023-04-24T00:39:53;0.80;;;0.38;;
72891;SDS011;61032;50.782;6.818;2023-04-24T00:40:53;1.55;;;0.40;;
72891;SDS011;61032;50.782;6.818;2023-04-24T00:41:54;0.60;;;0.40;;
72891;SDS011;61032;50.782;6.818;2023-04-24T00:43:56;0.63;;;0.30;;
72891;SDS011;61032;50.782;6.818;2023-04-24T00:44:57;0.85;;;0.20;;
72891;SDS011;61032;50.782;6.818;2023-04-24T00:45:57;0.73;;;0.40;;
72891;SDS011;61032;50.782;6.818;2023-04-24T00:46:59;1.10;;;0.60;;
72891;SDS011;61032;50.782;6.818;2023-04-24T00:48:00;1.83;;;0.57;;
72891;SDS011;61032;50.782;6.818;2023-04-24T00:49:01;0.90;;;0.35;;
72891;SDS011;61032;50.782;6.818;2023-04-24T00:50:03;0.55;;;0.30;;
72891;SDS011;61032;50.782;6.818;2023-04-24T00:51:05;1.17;;;0.52;;
72891;SDS011;61032;50.782;6.818;2023-04-24T00:52:06;2.47;;;0.30;;
72891;SDS011;61032;50.782;6.818;2023-04-24T00:53:08;1.25;;;0.47;;
72891;SDS011;61032;50.782;6.818;2023-04-24T00:54:08;0.88;;;0.22;;
72891;SDS011;61032;50.782;6.818;2023-04-24T00:55:09;0.88;;;0.50;;
72891;SDS011;61032;50.782;6.818;2023-04-24T00:56:10;1.00;;;0.35;;
72891;SDS011;61032;50.782;6.818;2023-04-24T00:57:11;1.10;;;0.40;;
72891;SDS011;61032;50.782;6.818;2023-04-24T00:58:13;0.50;;;0.32;;
72891;SDS011;61032;50.782;6.818;2023-04-24T00:59:16;1.30;;;0.52;;
72891;SDS011;61032;50.782;6.818;2023-04-24T01:00:17;1.67;;;0.55;;
72891;SDS011;61032;50.782;6.818;2023-04-24T01:01:19;0.95;;;0.32;;
72891;SDS011;61032;50.782;6.818;2023-04-24T01:02:21;2.05;;;0.77;;
72891;SDS011;61032;50.782;6.818;2023-04-24T01:04:28;0.98;;;0.55;;
72891;SDS011;61032;50.782;6.818;2023-04-24T01:05:28;1.20;;;0.50;;
72891;SDS011;61032;50.782;6.818;2023-04-24T01:06:29;1.33;;;0.70;;
72891;SDS011;61032;50.782;6.818;2023-04-24T01:07:33;3.72;;;1.02;;
72891;SDS011;61032;50.782;6.818;2023-04-24T01:08:34;1.52;;;0.65;;
72891;SDS011;61032;50.782;6.818;2023-04-24T01:09:40;1.25;;;0.50;;
72891;SDS011;61032;50.782;6.818;2023-04-24T01:10:44;1.38;;;0.60;;
72891;SDS011;61032;50.782;6.818;2023-04-24T01:11:45;1.17;;;0.60;;
72891;SDS011;61032;50.782;6.818;2023-04-24T01:12:46;1.17;;;0.68;;
72891;SDS011;61032;50.782;6.818;2023-04-24T01:13:47;1.58;;;0.80;;
72891;SDS011;61032;50.782;6.818;2023-04-24T01:14:48;1.33;;;0.70;;
72891;SDS011;61032;50.782;6.818;2023-04-24T01:15:49;2.38;;;0.70;;
72891;SDS011;61032;50.782;6.818;2023-04-24T01:16:49;1.70;;;0.57;;
72891;SDS011;61032;50.782;6.818;2023-04-24T01:17:50;1.50;;;0.75;;
72891;SDS011;61032;50.782;6.818;2023-04-24T01:18:50;1.90;;;0.65;;
72891;SDS011;61032;50.782;6.818;2023-04-24T01:19:51;1.05;;;0.60;;
72891;SDS011;61032;50.782;6.818;2023-04-24T01:20:57;1.35;;;0.82;;
72891;SDS011;61032;50.782;6.818;2023-04-24T01:21:59;1.52;;;0.80;;
72891;SDS011;61032;50.782;6.818;2023-04-24T01:23:02;1.55;;;1.00;;
72891;SDS011;61032;50.782;6.818;2023-04-24T01:24:05;1.27;;;0.80;;
72891;SDS011;61032;50.782;6.818;2023-04-24T01:25:06;1.42;;;0.50;;
72891;SDS011;61032;50.782;6.818;2023-04-24T01:26:07;2.30;;;0.77;;
72891;SDS011;61032;50.782;6.818;2023-04-24T01:27:08;2.78;;;0.80;;
72891;SDS011;61032;50.782;6.818;2023-04-24T01:28:09;1.33;;;0.70;;
72891;SDS011;61032;50.782;6.818;2023-04-24T01:29:10;2.33;;;0.73;;
72891;SDS011;61032;50.782;6.818;2023-04-24T01:30:11;2.03;;;0.70;;
72891;SDS011;61032;50.782;6.818;2023-04-24T01:31:12;1.83;;;0.70;;
72891;SDS011;61032;50.782;6.818;2023-04-24T01:32:12;2.25;;;1.02;;
72891;SDS011;61032;50.782;6.818;2023-04-24T01:33:13;2.70;;;0.77;;
72891;SDS011;61032;50.782;6.818;2023-04-24T01:34:14;2.45;;;0.85;;
72891;SDS011;61032;50.782;6.818;2023-04-24T01:35:14;3.40;;;0.90;;
72891;SDS011;61032;50.782;6.818;2023-04-24T01:36:14;1.40;;;0.90;;
72891;SDS011;61032;50.782;6.818;2023-04-24T01:37:16;2.40;;;1.13;;
72891;SDS011;61032;50.782;6.818;2023-04-24T01:38:16;1.13;;;0.98;;
72891;SDS011;61032;50.782;6.818;2023-04-24T01:39:17;1.20;;;0.98;;
72891;SDS011;61032;50.782;6.818;2023-04-24T01:40:17;1.88;;;0.95;;
72891;SDS011;61032;50.782;6.818;2023-04-24T01:41:17;1.33;;;0.88;;
72891;SDS011;61032;50.782;6.818;2023-04-24T01:42:18;1.77;;;0.90;;
72891;SDS011;61032;50.782;6.818;2023-04-24T01:43:19;1.45;;;0.90;;
72891;SDS011;61032;50.782;6.818;2023-04-24T01:44:19;1.80;;;0.93;;
72891;SDS011;61032;50.782;6.818;2023-04-24T01:45:21;1.23;;;0.82;;
72891;SDS011;61032;50.782;6.818;2023-04-24T01:46:21;1.83;;;0.85;;
72891;SDS011;61032;50.782;6.818;2023-04-24T01:47:22;1.13;;;0.70;;
72891;SDS011;61032;50.782;6.818;2023-04-24T01:48:23;2.28;;;0.90;;
72891;SDS011;61032;50.782;6.818;2023-04-24T01:49:24;1.60;;;0.95;;
72891;SDS011;61032;50.782;6.818;2023-04-24T01:50:24;1.52;;;0.95;;
72891;SDS011;61032;50.782;6.818;2023-04-24T01:51:25;1.98;;;1.02;;
72891;SDS011;61032;50.782;6.818;2023-04-24T01:52:25;2.00;;;1.10;;
72891;SDS011;61032;50.782;6.818;2023-04-24T01:53:25;1.40;;;0.88;;
72891;SDS011;61032;50.782;6.818;2023-04-24T01:54:26;4.68;;;1.33;;
72891;SDS011;61032;50.782;6.818;2023-04-24T01:55:26;2.03;;;0.98;;
72891;SDS011;61032;50.782;6.818;2023-04-24T01:56:28;1.45;;;1.20;;
72891;SDS011;61032;50.782;6.818;2023-04-24T01:57:30;2.88;;;1.15;;
72891;SDS011;61032;50.782;6.818;2023-04-24T01:58:31;2.13;;;1.42;;
72891;SDS011;61032;50.782;6.818;2023-04-24T01:59:31;3.80;;;2.05;;
72891;SDS011;61032;50.782;6.818;2023-04-24T02:00:33;2.88;;;1.50;;
72891;SDS011;61032;50.782;6.818;2023-04-24T02:01:34;2.35;;;1.50;;
72891;SDS011;61032;50.782;6.818;2023-04-24T02:02:36;3.42;;;1.80;;
72891;SDS011;61032;50.782;6.818;2023-04-24T02:03:36;5.18;;;2.20;;
72891;SDS011;61032;50.782;6.818;2023-04-24T02:04:36;2.95;;;1.70;;
72891;SDS011;61032;50.782;6.818;2023-04-24T02:05:37;3.58;;;2.00;;
72891;SDS011;61032;50.782;6.818;2023-04-24T02:06:37;3.58;;;2.33;;
72891;SDS011;61032;50.782;6.818;2023-04-24T02:07:37;3.25;;;2.40;;
72891;SDS011;61032;50.782;6.818;2023-04-24T02:08:38;4.55;;;2.10;;
72891;SDS011;61032;50.782;6.818;2023-04-24T02:09:38;5.47;;;2.50;;
72891;SDS011;61032;50.782;6.818;2023-04-24T02:10:38;3.92;;;2.40;;
72891;SDS011;61032;50.782;6.818;2023-04-24T02:11:39;4.03;;;2.60;;
72891;SDS011;61032;50.782;6.818;2023-04-24T02:12:39;3.97;;;2.60;;
72891;SDS011;61032;50.782;6.818;2023-04-24T02:13:39;3.63;;;2.50;;
72891;SDS011;61032;50.782;6.818;2023-04-24T02:14:39;4.97;;;2.65;;
72891;SDS011;61032;50.782;6.818;2023-04-24T02:15:40;3.50;;;2.30;;
72891;SDS011;61032;50.782;6.818;2023-04-24T02:16:40;4.63;;;2.60;;
72891;SDS011;61032;50.782;6.818;2023-04-24T02:17:40;3.92;;;2.60;;
72891;SDS011;61032;50.782;6.818;2023-04-24T02:18:41;5.40;;;2.72;;
72891;SDS011;61032;50.782;6.818;2023-04-24T02:19:41;3.33;;;2.50;;
72891;SDS011;61032;50.782;6.818;2023-04-24T02:20:41;5.43;;;2.58;;
72891;SDS011;61032;50.782;6.818;2023-04-24T02:21:41;4.60;;;2.78;;
72891;SDS011;61032;50.782;6.818;2023-04-24T02:22:42;7.47;;;2.70;;
72891;SDS011;61032;50.782;6.818;2023-04-24T02:23:42;5.80;;;2.50;;
72891;SDS011;61032;50.782;6.818;2023-04-24T02:24:42;3.97;;;2.63;;
72891;SDS011;61032;50.782;6.818;2023-04-24T02:25:43;5.35;;;2.85;;
72891;SDS011;61032;50.782;6.818;2023-04-24T02:26:43;4.55;;;2.75;;
72891;SDS011;61032;50.782;6.818;2023-04-24T02:27:43;4.25;;;2.92;;
72891;SDS011;61032;50.782;6.818;2023-04-24T02:28:43;5.35;;;3.40;;
72891;SDS011;61032;50.782;6.818;2023-04-24T02:29:44;6.43;;;3.30;;
72891;SDS011;61032;50.782;6.818;2023-04-24T02:30:44;4.10;;;2.83;;
72891;SDS011;61032;50.782;6.818;2023-04-24T02:31:45;5.65;;;2.92;;
72891;SDS011;61032;50.782;6.818;2023-04-24T02:32:45;4.90;;;3.10;;
72891;SDS011;61032;50.782;6.818;2023-04-24T02:33:45;5.68;;;2.97;;
72891;SDS011;61032;50.782;6.818;2023-04-24T02:34:46;6.90;;;3.33;;
72891;SDS011;61032;50.782;6.818;2023-04-24T02:35:46;5.10;;;3.33;;
72891;SDS011;61032;50.782;6.818;2023-04-24T02:36:46;5.78;;;3.22;;
72891;SDS011;61032;50.782;6.818;2023-04-24T02:37:46;6.45;;;3.25;;
72891;SDS011;61032;50.782;6.818;2023-04-24T02:38:47;4.72;;;2.95;;
72891;SDS011;61032;50.782;6.818;2023-04-24T02:39:47;5.75;;;3.13;;
72891;SDS011;61032;50.782;6.818;2023-04-24T02:40:47;7.45;;;3.10;;
72891;SDS011;61032;50.782;6.818;2023-04-24T02:41:48;3.67;;;2.63;;
72891;SDS011;61032;50.782;6.818;2023-04-24T02:42:48;4.15;;;2.45;;
72891;SDS011;61032;50.782;6.818;2023-04-24T02:43:48;4.97;;;2.88;;
72891;SDS011;61032;50.782;6.818;2023-04-24T02:44:49;5.38;;;3.22;;
72891;SDS011;61032;50.782;6.818;2023-04-24T02:45:51;6.28;;;3.05;;
72891;SDS011;61032;50.782;6.818;2023-04-24T02:46:51;4.85;;;3.10;;
72891;SDS011;61032;50.782;6.818;2023-04-24T02:47:51;4.82;;;2.90;;
72891;SDS011;61032;50.782;6.818;2023-04-24T02:48:52;4.43;;;3.00;;
72891;SDS011;61032;50.782;6.818;2023-04-24T02:49:52;5.00;;;3.10;;
72891;SDS011;61032;50.782;6.818;2023-04-24T02:50:52;4.97;;;2.88;;
72891;SDS011;61032;50.782;6.818;2023-04-24T02:51:53;5.57;;;2.80;;
72891;SDS011;61032;50.782;6.818;2023-04-24T02:52:53;4.80;;;2.67;;
72891;SDS011;61032;50.782;6.818;2023-04-24T02:53:53;4.32;;;3.10;;
72891;SDS011;61032;50.782;6.818;2023-04-24T02:54:53;4.45;;;3.13;;
72891;SDS011;61032;50.782;6.818;2023-04-24T02:55:54;6.10;;;3.15;;
72891;SDS011;61032;50.782;6.818;2023-04-24T02:56:54;4.22;;;2.88;;
72891;SDS011;61032;50.782;6.818;2023-04-24T02:57:55;4.28;;;2.85;;
72891;SDS011;61032;50.782;6.818;2023-04-24T02:58:55;5.32;;;3.40;;
72891;SDS011;61032;50.782;6.818;2023-04-24T02:59:55;6.40;;;2.72;;
72891;SDS011;61032;50.782;6.818;2023-04-24T03:00:55;4.18;;;2.28;;
72891;SDS011;61032;50.782;6.818;2023-04-24T03:01:56;4.07;;;2.38;;
72891;SDS011;61032;50.782;6.818;2023-04-24T03:02:56;4.93;;;2.95;;
72891;SDS011;61032;50.782;6.818;2023-04-24T03:03:56;4.45;;;2.83;;
72891;SDS011;61032;50.782;6.818;2023-04-24T03:04:57;3.65;;;2.50;;
72891;SDS011;61032;50.782;6.818;2023-04-24T03:05:58;4.35;;;3.03;;
72891;SDS011;61032;50.782;6.818;2023-04-24T03:06:59;5.28;;;2.80;;
72891;SDS011;61032;50.782;6.818;2023-04-24T03:07:59;4.32;;;3.30;;
72891;SDS011;61032;50.782;6.818;2023-04-24T03:09:00;4.18;;;3.10;;
72891;SDS011;61032;50.782;6.818;2023-04-24T03:10:00;4.97;;;3.10;;
72891;SDS011;61032;50.782;6.818;2023-04-24T03:11:00;5.05;;;2.88;;
72891;SDS011;61032;50.782;6.818;2023-04-24T03:12:00;5.55;;;2.90;;
72891;SDS011;61032;50.782;6.818;2023-04-24T03:13:01;3.95;;;2.78;;
72891;SDS011;61032;50.782;6.818;2023-04-24T03:14:01;7.18;;;3.35;;
72891;SDS011;61032;50.782;6.818;2023-04-24T03:15:02;4.95;;;2.97;;
72891;SDS011;61032;50.782;6.818;2023-04-24T03:16:03;6.57;;;3.03;;
72891;SDS011;61032;50.782;6.818;2023-04-24T03:17:03;6.05;;;3.40;;
72891;SDS011;61032;50.782;6.818;2023-04-24T03:18:04;5.05;;;3.42;;
72891;SDS011;61032;50.782;6.818;2023-04-24T03:19:04;6.00;;;2.95;;
72891;SDS011;61032;50.782;6.818;2023-04-24T03:20:05;9.10;;;3.25;;
72891;SDS011;61032;50.782;6.818;2023-04-24T03:21:06;5.03;;;2.80;;
72891;SDS011;61032;50.782;6.818;2023-04-24T03:22:06;5.90;;;2.88;;
72891;SDS011;61032;50.782;6.818;2023-04-24T03:23:08;4.75;;;3.22;;
72891;SDS011;61032;50.782;6.818;2023-04-24T03:24:09;3.67;;;2.55;;
72891;SDS011;61032;50.782;6.818;2023-04-24T03:25:09;5.05;;;3.03;;
72891;SDS011;61032;50.782;6.818;2023-04-24T03:26:09;4.72;;;2.83;;
72891;SDS011;61032;50.782;6.818;2023-04-24T03:27:10;5.40;;;3.30;;
72891;SDS011;61032;50.782;6.818;2023-04-24T03:28:10;4.97;;;3.40;;
72891;SDS011;61032;50.782;6.818;2023-04-24T03:29:10;6.28;;;3.10;;
72891;SDS011;61032;50.782;6.818;2023-04-24T03:30:11;4.25;;;2.88;;
72891;SDS011;61032;50.782;6.818;2023-04-24T03:31:11;5.68;;;3.20;;
72891;SDS011;61032;50.782;6.818;2023-04-24T03:32:12;3.80;;;3.08;;
72891;SDS011;61032;50.782;6.818;2023-04-24T03:33:12;5.38;;;3.05;;
72891;SDS011;61032;50.782;6.818;2023-04-24T03:34:12;5.40;;;2.95;;
72891;SDS011;61032;50.782;6.818;2023-04-24T03:35:13;4.00;;;3.00;;
72891;SDS011;61032;50.782;6.818;2023-04-24T03:36:13;4.60;;;2.70;;
72891;SDS011;61032;50.782;6.818;2023-04-24T03:37:13;4.93;;;2.72;;
72891;SDS011;61032;50.782;6.818;2023-04-24T03:38:14;4.25;;;2.60;;
72891;SDS011;61032;50.782;6.818;2023-04-24T03:39:14;4.63;;;2.47;;
72891;SDS011;61032;50.782;6.818;2023-04-24T03:40:14;4.13;;;2.38;;
72891;SDS011;61032;50.782;6.818;2023-04-24T03:41:15;3.88;;;2.70;;
72891;SDS011;61032;50.782;6.818;2023-04-24T03:42:15;4.53;;;3.22;;
72891;SDS011;61032;50.782;6.818;2023-04-24T03:43:15;4.13;;;2.55;;
72891;SDS011;61032;50.782;6.818;2023-04-24T03:44:16;4.38;;;2.70;;
72891;SDS011;61032;50.782;6.818;2023-04-24T03:45:16;5.28;;;2.72;;
72891;SDS011;61032;50.782;6.818;2023-04-24T03:46:16;4.45;;;2.65;;
72891;SDS011;61032;50.782;6.818;2023-04-24T03:47:17;5.20;;;2.50;;
72891;SDS011;61032;50.782;6.818;2023-04-24T03:48:17;4.70;;;2.63;;
72891;SDS011;61032;50.782;6.818;2023-04-24T03:49:17;5.55;;;2.70;;
72891;SDS011;61032;50.782;6.818;2023-04-24T03:50:17;5.18;;;2.90;;
72891;SDS011;61032;50.782;6.818;2023-04-24T03:51:18;5.43;;;3.13;;
72891;SDS011;61032;50.782;6.818;2023-04-24T03:52:18;3.65;;;2.75;;
72891;SDS011;61032;50.782;6.818;2023-04-24T03:53:18;5.57;;;3.03;;
72891;SDS011;61032;50.782;6.818;2023-04-24T03:54:19;4.70;;;2.85;;
72891;SDS011;61032;50.782;6.818;2023-04-24T03:55:20;3.38;;;2.60;;
72891;SDS011;61032;50.782;6.818;2023-04-24T03:56:20;3.88;;;2.55;;
72891;SDS011;61032;50.782;6.818;2023-04-24T03:57:20;3.75;;;2.63;;
72891;SDS011;61032;50.782;6.818;2023-04-24T03:58:21;3.45;;;2.50;;
72891;SDS011;61032;50.782;6.818;2023-04-24T03:59:21;4.95;;;2.80;;
72891;SDS011;61032;50.782;6.818;2023-04-24T04:00:21;4.07;;;2.72;;
72891;SDS011;61032;50.782;6.818;2023-04-24T04:01:22;3.97;;;2.72;;
72891;SDS011;61032;50.782;6.818;2023-04-24T04:02:23;3.97;;;2.67;;
72891;SDS011;61032;50.782;6.818;2023-04-24T04:03:23;4.68;;;2.83;;
72891;SDS011;61032;50.782;6.818;2023-04-24T04:04:23;5.03;;;2.78;;
72891;SDS011;61032;50.782;6.818;2023-04-24T04:05:24;4.55;;;3.22;;
72891;SDS011;61032;50.782;6.818;2023-04-24T04:06:24;4.35;;;2.90;;
72891;SDS011;61032;50.782;6.818;2023-04-24T04:07:24;6.65;;;2.78;;
72891;SDS011;61032;50.782;6.818;2023-04-24T04:08:25;4.40;;;2.90;;
72891;SDS011;61032;50.782;6.818;2023-04-24T04:09:25;4.05;;;2.90;;
72891;SDS011;61032;50.782;6.818;2023-04-24T04:10:26;4.10;;;3.08;;
72891;SDS011;61032;50.782;6.818;2023-04-24T04:11:26;5.40;;;3.15;;
72891;SDS011;61032;50.782;6.818;2023-04-24T04:12:26;3.67;;;2.90;;
72891;SDS011;61032;50.782;6.818;2023-04-24T04:13:27;5.47;;;2.80;;
72891;SDS011;61032;50.782;6.818;2023-04-24T04:14:27;4.38;;;3.00;;
72891;SDS011;61032;50.782;6.818;2023-04-24T04:15:27;4.75;;;2.58;;
72891;SDS011;61032;50.782;6.818;2023-04-24T04:16:28;5.53;;;3.00;;
72891;SDS011;61032;50.782;6.818;2023-04-24T04:17:28;4.05;;;2.78;;
72891;SDS011;61032;50.782;6.818;2023-04-24T04:18:29;4.43;;;2.63;;
72891;SDS011;61032;50.782;6.818;2023-04-24T04:19:29;4.15;;;2.90;;
72891;SDS011;61032;50.782;6.818;2023-04-24T04:20:29;5.18;;;3.03;;
72891;SDS011;61032;50.782;6.818;2023-04-24T04:21:30;4.05;;;2.53;;
72891;SDS011;61032;50.782;6.818;2023-04-24T04:22:31;7.13;;;3.47;;
72891;SDS011;61032;50.782;6.818;2023-04-24T04:23:31;5.32;;;3.15;;
72891;SDS011;61032;50.782;6.818;2023-04-24T04:24:31;5.28;;;2.83;;
72891;SDS011;61032;50.782;6.818;2023-04-24T04:25:32;5.50;;;2.83;;
72891;SDS011;61032;50.782;6.818;2023-04-24T04:26:32;6.97;;;3.03;;
72891;SDS011;61032;50.782;6.818;2023-04-24T04:27:33;5.38;;;3.28;;
72891;SDS011;61032;50.782;6.818;2023-04-24T04:28:33;5.20;;;3.03;;
72891;SDS011;61032;50.782;6.818;2023-04-24T04:29:34;4.63;;;2.78;;
72891;SDS011;61032;50.782;6.818;2023-04-24T04:30:35;5.38;;;3.08;;
72891;SDS011;61032;50.782;6.818;2023-04-24T04:31:38;3.90;;;2.95;;
72891;SDS011;61032;50.782;6.818;2023-04-24T04:32:38;4.35;;;2.90;;
72891;SDS011;61032;50.782;6.818;2023-04-24T04:33:38;4.97;;;3.30;;
72891;SDS011;61032;50.782;6.818;2023-04-24T04:34:39;6.25;;;3.20;;
72891;SDS011;61032;50.782;6.818;2023-04-24T04:35:40;5.72;;;3.10;;
72891;SDS011;61032;50.782;6.818;2023-04-24T04:36:41;4.43;;;2.60;;
72891;SDS011;61032;50.782;6.818;2023-04-24T04:37:41;7.78;;;3.05;;
72891;SDS011;61032;50.782;6.818;2023-04-24T04:38:42;4.93;;;3.15;;
72891;SDS011;61032;50.782;6.818;2023-04-24T04:39:42;5.63;;;2.92;;
72891;SDS011;61032;50.782;6.818;2023-04-24T04:40:43;4.93;;;2.60;;
72891;SDS011;61032;50.782;6.818;2023-04-24T04:41:44;4.35;;;3.15;;
72891;SDS011;61032;50.782;6.818;2023-04-24T04:42:46;4.68;;;2.80;;
72891;SDS011;61032;50.782;6.818;2023-04-24T04:43:47;4.95;;;3.28;;
72891;SDS011;61032;50.782;6.818;2023-04-24T04:44:48;5.78;;;3.20;;
72891;SDS011;61032;50.782;6.818;2023-04-24T04:45:48;4.07;;;2.92;;
72891;SDS011;61032;50.782;6.818;2023-04-24T04:46:49;6.30;;;3.53;;
72891;SDS011;61032;50.782;6.818;2023-04-24T04:47:50;3.97;;;2.92;;
72891;SDS011;61032;50.782;6.818;2023-04-24T04:48:50;5.25;;;3.17;;
72891;SDS011;61032;50.782;6.818;2023-04-24T04:49:50;4.95;;;2.78;;
72891;SDS011;61032;50.782;6.818;2023-04-24T04:50:51;4.68;;;3.00;;
72891;SDS011;61032;50.782;6.818;2023-04-24T04:51:52;5.57;;;2.70;;
72891;SDS011;61032;50.782;6.818;2023-04-24T04:52:53;5.03;;;3.20;;
72891;SDS011;61032;50.782;6.818;2023-04-24T04:53:53;5.28;;;3.13;;
72891;SDS011;61032;50.782;6.818;2023-04-24T04:54:53;7.35;;;3.17;;
72891;SDS011;61032;50.782;6.818;2023-04-24T04:55:53;5.10;;;3.15;;
72891;SDS011;61032;50.782;6.818;2023-04-24T04:56:54;5.25;;;2.88;;
72891;SDS011;61032;50.782;6.818;2023-04-24T04:57:54;6.57;;;3.08;;
72891;SDS011;61032;50.782;6.818;2023-04-24T04:58:56;5.93;;;3.72;;
72891;SDS011;61032;50.782;6.818;2023-04-24T04:59:56;4.88;;;2.90;;
72891;SDS011;61032;50.782;6.818;2023-04-24T05:00:56;5.93;;;2.70;;
72891;SDS011;61032;50.782;6.818;2023-04-24T05:01:57;5.32;;;3.50;;
72891;SDS011;61032;50.782;6.818;2023-04-24T05:02:57;5.70;;;2.83;;
72891;SDS011;61032;50.782;6.818;2023-04-24T05:03:57;4.95;;;3.00;;
72891;SDS011;61032;50.782;6.818;2023-04-24T05:04:58;4.18;;;3.05;;
72891;SDS011;61032;50.782;6.818;2023-04-24T05:05:58;4.63;;;2.80;;
72891;SDS011;61032;50.782;6.818;2023-04-24T05:06:58;4.88;;;3.25;;
72891;SDS011;61032;50.782;6.818;2023-04-24T05:07:59;6.88;;;3.25;;
72891;SDS011;61032;50.782;6.818;2023-04-24T05:08:59;7.57;;;3.50;;
72891;SDS011;61032;50.782;6.818;2023-04-24T05:10:00;4.35;;;3.30;;
72891;SDS011;61032;50.782;6.818;2023-04-24T05:11:00;6.38;;;3.38;;
72891;SDS011;61032;50.782;6.818;2023-04-24T05:12:00;7.00;;;3.40;;
72891;SDS011;61032;50.782;6.818;2023-04-24T05:13:02;7.22;;;3.00;;
72891;SDS011;61032;50.782;6.818;2023-04-24T05:14:03;4.65;;;2.88;;
72891;SDS011;61032;50.782;6.818;2023-04-24T05:15:04;5.28;;;2.88;;
72891;SDS011;61032;50.782;6.818;2023-04-24T05:16:05;4.45;;;3.35;;
72891;SDS011;61032;50.782;6.818;2023-04-24T05:17:09;5.72;;;2.88;;
72891;SDS011;61032;50.782;6.818;2023-04-24T05:18:09;6.78;;;3.35;;
72891;SDS011;61032;50.782;6.818;2023-04-24T05:19:10;4.80;;;3.13;;
72891;SDS011;61032;50.782;6.818;2023-04-24T05:20:11;5.47;;;3.17;;
72891;SDS011;61032;50.782;6.818;2023-04-24T05:21:12;6.03;;;3.10;;
72891;SDS011;61032;50.782;6.818;2023-04-24T05:22:12;6.13;;;3.22;;
72891;SDS011;61032;50.782;6.818;2023-04-24T05:23:12;5.53;;;3.03;;
72891;SDS011;61032;50.782;6.818;2023-04-24T05:24:13;5.45;;;3.78;;
72891;SDS011;61032;50.782;6.818;2023-04-24T05:25:13;5.13;;;2.92;;
72891;SDS011;61032;50.782;6.818;2023-04-24T05:26:14;6.07;;;3.10;;
72891;SDS011;61032;50.782;6.818;2023-04-24T05:27:15;4.93;;;3.22;;
72891;SDS011;61032;50.782;6.818;2023-04-24T05:28:15;10.40;;;3.30;;
72891;SDS011;61032;50.782;6.818;2023-04-24T05:29:15;6.05;;;3.58;;
72891;SDS011;61032;50.782;6.818;2023-04-24T05:30:16;5.43;;;3.35;;
72891;SDS011;61032;50.782;6.818;2023-04-24T05:31:16;6.00;;;3.38;;
72891;SDS011;61032;50.782;6.818;2023-04-24T05:32:17;6.95;;;3.03;;
72891;SDS011;61032;50.782;6.818;2023-04-24T05:33:18;4.15;;;2.97;;
72891;SDS011;61032;50.782;6.818;2023-04-24T05:34:18;5.97;;;3.17;;
72891;SDS011;61032;50.782;6.818;2023-04-24T05:35:18;6.28;;;4.05;;
72891;SDS011;61032;50.782;6.818;2023-04-24T05:36:19;4.07;;;3.08;;
72891;SDS011;61032;50.782;6.818;2023-04-24T05:37:19;5.80;;;3.13;;
72891;SDS011;61032;50.782;6.818;2023-04-24T05:38:20;4.10;;;2.70;;
72891;SDS011;61032;50.782;6.818;2023-04-24T05:39:21;6.22;;;3.05;;
72891;SDS011;61032;50.782;6.818;2023-04-24T05:40:21;4.78;;;3.20;;
72891;SDS011;61032;50.782;6.818;2023-04-24T05:41:21;4.55;;;3.30;;
72891;SDS011;61032;50.782;6.818;2023-04-24T05:42:22;3.90;;;3.05;;
72891;SDS011;61032;50.782;6.818;2023-04-24T05:43:22;4.78;;;3.38;;
72891;SDS011;61032;50.782;6.818;2023-04-24T05:44:23;4.13;;;3.08;;
72891;SDS011;61032;50.782;6.818;2023-04-24T05:45:23;5.22;;;3.17;;
72891;SDS011;61032;50.782;6.818;2023-04-24T05:46:23;6.28;;;3.22;;
72891;SDS011;61032;50.782;6.818;2023-04-24T05:47:24;4.65;;;3.28;;
72891;SDS011;61032;50.782;6.818;2023-04-24T05:48:25;8.07;;;3.22;;
72891;SDS011;61032;50.782;6.818;2023-04-24T05:49:26;4.63;;;2.80;;
72891;SDS011;61032;50.782;6.818;2023-04-24T05:50:26;5.25;;;2.90;;
72891;SDS011;61032;50.782;6.818;2023-04-24T05:51:26;5.63;;;3.47;;
72891;SDS011;61032;50.782;6.818;2023-04-24T05:52:27;5.40;;;3.25;;
72891;SDS011;61032;50.782;6.818;2023-04-24T05:53:27;4.47;;;2.63;;
72891;SDS011;61032;50.782;6.818;2023-04-24T05:54:27;5.20;;;2.92;;
72891;SDS011;61032;50.782;6.818;2023-04-24T05:55:28;5.78;;;2.88;;
72891;SDS011;61032;50.782;6.818;2023-04-24T05:56:28;5.50;;;3.10;;
72891;SDS011;61032;50.782;6.818;2023-04-24T05:57:29;4.18;;;2.63;;
72891;SDS011;61032;50.782;6.818;2023-04-24T05:58:30;4.72;;;2.83;;
72891;SDS011;61032;50.782;6.818;2023-04-24T05:59:30;5.03;;;2.58;;
72891;SDS011;61032;50.782;6.818;2023-04-24T06:00:30;4.07;;;2.30;;
72891;SDS011;61032;50.782;6.818;2023-04-24T06:01:31;3.78;;;2.85;;
72891;SDS011;61032;50.782;6.818;2023-04-24T06:02:31;5.35;;;2.47;;
72891;SDS011;61032;50.782;6.818;2023-04-24T06:03:32;4.75;;;2.90;;
72891;SDS011;61032;50.782;6.818;2023-04-24T06:04:33;3.85;;;2.42;;
72891;SDS011;61032;50.782;6.818;2023-04-24T06:05:33;3.88;;;2.30;;
72891;SDS011;61032;50.782;6.818;2023-04-24T06:06:35;3.15;;;1.90;;
72891;SDS011;61032;50.782;6.818;2023-04-24T06:07:35;5.43;;;2.08;;